sensor_id;sensor_type;location;lat;lon;timestamp;temperature;humidity
64888;DHT22;51386;53.082;8.816;2023-05-07T00:02:03;14.20;76.00
64888;DHT22;51386;53.082;8.816;2023-05-07T00:04:30;14.20;76.20
64888;DHT22;51386;53.082;8.816;2023-05-07T00:07:04;14.20;76.10
64888;DHT22;51386;53.082;8.816;2023-05-07T00:09:32;14.20;76.20
64888;DHT22;51386;53.082;8.816;2023-05-07T00:11:59;14.20;76.20
64888;DHT22;51386;53.082;8.816;2023-05-07T00:14:26;14.20;76.10
64888;DHT22;51386;53.082;8.816;2023-05-07T00:16:53;14.20;76.30
64888;DHT22;51386;53.082;8.816;2023-05-07T00:19:20;14.10;76.20
64888;DHT22;51386;53.082;8.816;2023-05-07T00:21:47;14.20;76.40
64888;DHT22;51386;53.082;8.816;2023-05-07T00:24:16;14.20;76.50
64888;DHT22;51386;53.082;8.816;2023-05-07T00:26:42;14.20;76.40
64888;DHT22;51386;53.082;8.816;2023-05-07T00:29:09;14.20;76.20
64888;DHT22;51386;53.082;8.816;2023-05-07T00:31:36;14.20;76.20
64888;DHT22;51386;53.082;8.816;2023-05-07T00:34:03;14.10;76.40
64888;DHT22;51386;53.082;8.816;2023-05-07T00:36:30;14.20;76.60
64888;DHT22;51386;53.082;8.816;2023-05-07T00:38:59;14.20;76.40
64888;DHT22;51386;53.082;8.816;2023-05-07T00:41:29;14.10;76.10
64888;DHT22;51386;53.082;8.816;2023-05-07T00:43:59;14.10;75.90
64888;DHT22;51386;53.082;8.816;2023-05-07T00:46:27;14.10;76.10
64888;DHT22;51386;53.082;8.816;2023-05-07T00:48:54;14.00;76.20
64888;DHT22;51386;53.082;8.816;2023-05-07T00:51:23;13.90;76.30
64888;DHT22;51386;53.082;8.816;2023-05-07T00:53:51;13.90;76.60
64888;DHT22;51386;53.082;8.816;2023-05-07T00:56:20;13.80;76.60
64888;DHT22;51386;53.082;8.816;2023-05-07T00:58:49;13.80;76.60
64888;DHT22;51386;53.082;8.816;2023-05-07T01:01:16;13.70;76.70
64888;DHT22;51386;53.082;8.816;2023-05-07T01:03:43;13.60;76.80
64888;DHT22;51386;53.082;8.816;2023-05-07T01:06:12;13.60;77.00
64888;DHT22;51386;53.082;8.816;2023-05-07T01:08:43;13.60;77.40
64888;DHT22;51386;53.082;8.816;2023-05-07T01:11:11;13.50;77.40
64888;DHT22;51386;53.082;8.816;2023-05-07T01:13:39;13.40;77.60
64888;DHT22;51386;53.082;8.816;2023-05-07T01:16:10;13.50;77.90
64888;DHT22;51386;53.082;8.816;2023-05-07T01:18:37;13.50;77.80
64888;DHT22;51386;53.082;8.816;2023-05-07T01:21:05;13.40;78.00
64888;DHT22;51386;53.082;8.816;2023-05-07T01:23:35;13.50;78.20
64888;DHT22;51386;53.082;8.816;2023-05-07T01:26:02;13.50;78.00
64888;DHT22;51386;53.082;8.816;2023-05-07T01:28:29;13.50;77.90
64888;DHT22;51386;53.082;8.816;2023-05-07T01:31:00;13.50;78.00
64888;DHT22;51386;53.082;8.816;2023-05-07T01:33:33;13.50;78.00
64888;DHT22;51386;53.082;8.816;2023-05-07T01:36:03;13.50;77.80
64888;DHT22;51386;53.082;8.816;2023-05-07T01:38:35;13.50;77.80
64888;DHT22;51386;53.082;8.816;2023-05-07T01:41:03;13.60;77.70
64888;DHT22;51386;53.082;8.816;2023-05-07T01:43:30;13.60;77.50
64888;DHT22;51386;53.082;8.816;2023-05-07T01:45:58;13.60;77.30
64888;DHT22;51386;53.082;8.816;2023-05-07T01:48:26;13.60;77.30
64888;DHT22;51386;53.082;8.816;2023-05-07T01:50:54;13.50;77.10
64888;DHT22;51386;53.082;8.816;2023-05-07T01:53:22;13.50;77.20
64888;DHT22;51386;53.082;8.816;2023-05-07T01:55:50;13.50;77.40
64888;DHT22;51386;53.082;8.816;2023-05-07T01:58:17;13.50;77.60
64888;DHT22;51386;53.082;8.816;2023-05-07T02:00:44;13.50;77.50
64888;DHT22;51386;53.082;8.816;2023-05-07T02:03:11;13.50;77.40
64888;DHT22;51386;53.082;8.816;2023-05-07T02:05:38;13.50;77.30
64888;DHT22;51386;53.082;8.816;2023-05-07T02:08:05;13.50;77.30
64888;DHT22;51386;53.082;8.816;2023-05-07T02:10:32;13.50;77.20
64888;DHT22;51386;53.082;8.816;2023-05-07T02:13:00;13.50;77.40
64888;DHT22;51386;53.082;8.816;2023-05-07T02:15:28;13.40;76.90
64888;DHT22;51386;53.082;8.816;2023-05-07T02:18:00;13.40;77.00
64888;DHT22;51386;53.082;8.816;2023-05-07T02:20:28;13.40;76.60
64888;DHT22;51386;53.082;8.816;2023-05-07T02:22:55;13.30;76.80
64888;DHT22;51386;53.082;8.816;2023-05-07T02:25:22;13.20;77.10
64888;DHT22;51386;53.082;8.816;2023-05-07T02:27:49;13.10;77.30
64888;DHT22;51386;53.082;8.816;2023-05-07T02:30:18;13.00;77.70
64888;DHT22;51386;53.082;8.816;2023-05-07T02:32:46;13.00;77.90
64888;DHT22;51386;53.082;8.816;2023-05-07T02:35:13;12.90;78.00
64888;DHT22;51386;53.082;8.816;2023-05-07T02:37:39;12.90;78.30
64888;DHT22;51386;53.082;8.816;2023-05-07T02:40:07;12.80;78.60
64888;DHT22;51386;53.082;8.816;2023-05-07T02:42:35;12.80;78.90
64888;DHT22;51386;53.082;8.816;2023-05-07T02:45:03;12.70;79.00
64888;DHT22;51386;53.082;8.816;2023-05-07T02:47:32;12.70;79.20
64888;DHT22;51386;53.082;8.816;2023-05-07T02:49:59;12.70;79.50
64888;DHT22;51386;53.082;8.816;2023-05-07T02:52:26;12.70;79.30
64888;DHT22;51386;53.082;8.816;2023-05-07T02:54:53;12.70;79.40
64888;DHT22;51386;53.082;8.816;2023-05-07T02:57:20;12.70;79.30
64888;DHT22;51386;53.082;8.816;2023-05-07T02:59:47;12.70;79.60
64888;DHT22;51386;53.082;8.816;2023-05-07T03:02:13;12.70;79.50
64888;DHT22;51386;53.082;8.816;2023-05-07T03:04:42;12.80;79.60
64888;DHT22;51386;53.082;8.816;2023-05-07T03:07:09;12.80;79.50
64888;DHT22;51386;53.082;8.816;2023-05-07T03:09:36;12.80;79.30
64888;DHT22;51386;53.082;8.816;2023-05-07T03:12:03;12.80;79.20
64888;DHT22;51386;53.082;8.816;2023-05-07T03:14:30;12.90;79.30
64888;DHT22;51386;53.082;8.816;2023-05-07T03:16:57;12.90;79.00
64888;DHT22;51386;53.082;8.816;2023-05-07T03:19:24;12.90;78.80
64888;DHT22;51386;53.082;8.816;2023-05-07T03:21:52;12.90;78.80
64888;DHT22;51386;53.082;8.816;2023-05-07T03:24:19;12.90;78.80
64888;DHT22;51386;53.082;8.816;2023-05-07T03:26:46;12.90;78.80
64888;DHT22;51386;53.082;8.816;2023-05-07T03:29:13;12.90;78.80
64888;DHT22;51386;53.082;8.816;2023-05-07T03:31:40;12.90;78.80
64888;DHT22;51386;53.082;8.816;2023-05-07T03:34:07;12.90;78.80
64888;DHT22;51386;53.082;8.816;2023-05-07T03:36:34;12.90;79.10
64888;DHT22;51386;53.082;8.816;2023-05-07T03:39:02;13.00;79.00
64888;DHT22;51386;53.082;8.816;2023-05-07T03:41:29;12.90;78.60
64888;DHT22;51386;53.082;8.816;2023-05-07T03:43:56;12.90;78.60
64888;DHT22;51386;53.082;8.816;2023-05-07T03:46:23;12.90;78.60
64888;DHT22;51386;53.082;8.816;2023-05-07T03:48:52;12.90;78.80
64888;DHT22;51386;53.082;8.816;2023-05-07T03:51:19;12.90;78.70
64888;DHT22;51386;53.082;8.816;2023-05-07T03:53:46;12.90;78.70
64888;DHT22;51386;53.082;8.816;2023-05-07T03:56:15;12.90;78.50
64888;DHT22;51386;53.082;8.816;2023-05-07T03:58:45;12.90;78.60
64888;DHT22;51386;53.082;8.816;2023-05-07T04:01:12;12.90;78.60
64888;DHT22;51386;53.082;8.816;2023-05-07T04:03:39;12.90;78.50
64888;DHT22;51386;53.082;8.816;2023-05-07T04:06:06;12.90;78.50
64888;DHT22;51386;53.082;8.816;2023-05-07T04:08:33;12.90;78.60
64888;DHT22;51386;53.082;8.816;2023-05-07T04:11:00;12.90;78.60
64888;DHT22;51386;53.082;8.816;2023-05-07T04:13:29;13.00;79.30
64888;DHT22;51386;53.082;8.816;2023-05-07T04:15:57;13.00;78.50
64888;DHT22;51386;53.082;8.816;2023-05-07T04:18:24;13.00;78.40
64888;DHT22;51386;53.082;8.816;2023-05-07T04:20:51;13.10;78.20
64888;DHT22;51386;53.082;8.816;2023-05-07T04:23:18;13.00;78.00
64888;DHT22;51386;53.082;8.816;2023-05-07T04:25:45;13.00;78.00
64888;DHT22;51386;53.082;8.816;2023-05-07T04:28:12;13.00;78.00
64888;DHT22;51386;53.082;8.816;2023-05-07T04:30:40;13.00;78.00
64888;DHT22;51386;53.082;8.816;2023-05-07T04:33:07;13.00;78.10
64888;DHT22;51386;53.082;8.816;2023-05-07T04:35:35;13.00;78.20
64888;DHT22;51386;53.082;8.816;2023-05-07T04:38:02;13.00;78.50
64888;DHT22;51386;53.082;8.816;2023-05-07T04:40:29;13.00;78.40
64888;DHT22;51386;53.082;8.816;2023-05-07T04:42:56;13.00;78.40
64888;DHT22;51386;53.082;8.816;2023-05-07T04:45:23;13.00;78.20
64888;DHT22;51386;53.082;8.816;2023-05-07T04:47:51;13.00;78.30
64888;DHT22;51386;53.082;8.816;2023-05-07T04:50:18;13.10;78.40
64888;DHT22;51386;53.082;8.816;2023-05-07T04:52:46;13.00;78.50
64888;DHT22;51386;53.082;8.816;2023-05-07T04:55:13;13.10;78.30
64888;DHT22;51386;53.082;8.816;2023-05-07T04:57:40;13.10;78.30
64888;DHT22;51386;53.082;8.816;2023-05-07T05:00:09;13.10;78.20
64888;DHT22;51386;53.082;8.816;2023-05-07T05:02:36;13.10;78.30
64888;DHT22;51386;53.082;8.816;2023-05-07T05:05:06;13.10;78.00
64888;DHT22;51386;53.082;8.816;2023-05-07T05:07:33;13.20;77.90
64888;DHT22;51386;53.082;8.816;2023-05-07T05:10:01;13.10;77.60
64888;DHT22;51386;53.082;8.816;2023-05-07T05:12:29;13.20;77.60
64888;DHT22;51386;53.082;8.816;2023-05-07T05:14:57;13.20;77.50
64888;DHT22;51386;53.082;8.816;2023-05-07T05:17:24;13.20;77.20
64888;DHT22;51386;53.082;8.816;2023-05-07T05:19:51;13.20;77.00
64888;DHT22;51386;53.082;8.816;2023-05-07T05:22:19;13.10;76.90
64888;DHT22;51386;53.082;8.816;2023-05-07T05:24:47;13.10;76.90
64888;DHT22;51386;53.082;8.816;2023-05-07T05:27:14;13.00;76.90
64888;DHT22;51386;53.082;8.816;2023-05-07T05:29:41;13.00;77.20
64888;DHT22;51386;53.082;8.816;2023-05-07T05:32:08;13.00;77.20
64888;DHT22;51386;53.082;8.816;2023-05-07T05:34:35;13.00;77.30
64888;DHT22;51386;53.082;8.816;2023-05-07T05:37:02;13.00;78.00
64888;DHT22;51386;53.082;8.816;2023-05-07T05:39:30;13.00;77.40
64888;DHT22;51386;53.082;8.816;2023-05-07T05:41:57;13.00;77.20
64888;DHT22;51386;53.082;8.816;2023-05-07T05:44:24;13.10;77.40
64888;DHT22;51386;53.082;8.816;2023-05-07T05:46:52;13.00;77.20
64888;DHT22;51386;53.082;8.816;2023-05-07T05:49:21;13.10;77.30
64888;DHT22;51386;53.082;8.816;2023-05-07T05:51:49;13.10;77.10
64888;DHT22;51386;53.082;8.816;2023-05-07T05:54:16;13.10;76.50
64888;DHT22;51386;53.082;8.816;2023-05-07T05:56:44;13.10;76.50
64888;DHT22;51386;53.082;8.816;2023-05-07T05:59:11;13.10;76.70
64888;DHT22;51386;53.082;8.816;2023-05-07T06:01:39;13.00;76.50
64888;DHT22;51386;53.082;8.816;2023-05-07T06:04:06;13.10;76.70
64888;DHT22;51386;53.082;8.816;2023-05-07T06:06:33;13.10;76.70
64888;DHT22;51386;53.082;8.816;2023-05-07T06:09:00;13.10;76.70
64888;DHT22;51386;53.082;8.816;2023-05-07T06:11:27;13.10;76.60
64888;DHT22;51386;53.082;8.816;2023-05-07T06:13:55;13.20;76.80
64888;DHT22;51386;53.082;8.816;2023-05-07T06:16:22;13.20;76.70
64888;DHT22;51386;53.082;8.816;2023-05-07T06:18:49;13.30;76.70
64888;DHT22;51386;53.082;8.816;2023-05-07T06:21:16;13.30;76.20
64888;DHT22;51386;53.082;8.816;2023-05-07T06:23:42;13.40;75.60
64888;DHT22;51386;53.082;8.816;2023-05-07T06:26:09;13.40;75.60
64888;DHT22;51386;53.082;8.816;2023-05-07T06:28:36;13.40;75.20
64888;DHT22;51386;53.082;8.816;2023-05-07T06:31:15;13.40;75.50
64888;DHT22;51386;53.082;8.816;2023-05-07T06:33:44;13.40;75.20
64888;DHT22;51386;53.082;8.816;2023-05-07T06:36:11;13.40;75.10
64888;DHT22;51386;53.082;8.816;2023-05-07T06:38:38;13.40;75.00
64888;DHT22;51386;53.082;8.816;2023-05-07T06:41:05;13.40;74.80
64888;DHT22;51386;53.082;8.816;2023-05-07T06:43:33;13.40;74.60
64888;DHT22;51386;53.082;8.816;2023-05-07T06:46:00;13.40;74.30
64888;DHT22;51386;53.082;8.816;2023-05-07T06:48:28;13.40;74.20
64888;DHT22;51386;53.082;8.816;2023-05-07T06:50:55;13.40;74.40
64888;DHT22;51386;53.082;8.816;2023-05-07T06:53:24;13.30;74.40
64888;DHT22;51386;53.082;8.816;2023-05-07T06:55:51;13.40;74.80
64888;DHT22;51386;53.082;8.816;2023-05-07T06:58:18;13.40;74.80
64888;DHT22;51386;53.082;8.816;2023-05-07T07:00:45;13.50;74.90
64888;DHT22;51386;53.082;8.816;2023-05-07T07:03:12;13.60;74.80
64888;DHT22;51386;53.082;8.816;2023-05-07T07:05:41;13.70;74.70
64888;DHT22;51386;53.082;8.816;2023-05-07T07:08:09;13.70;74.10
64888;DHT22;51386;53.082;8.816;2023-05-07T07:10:36;13.80;74.60
64888;DHT22;51386;53.082;8.816;2023-05-07T07:13:03;13.90;73.20
64888;DHT22;51386;53.082;8.816;2023-05-07T07:15:30;13.90;72.80
64888;DHT22;51386;53.082;8.816;2023-05-07T07:17:57;14.00;72.40
64888;DHT22;51386;53.082;8.816;2023-05-07T07:20:24;13.90;72.10
64888;DHT22;51386;53.082;8.816;2023-05-07T07:22:52;13.90;72.00
64888;DHT22;51386;53.082;8.816;2023-05-07T07:25:19;13.90;72.00
64888;DHT22;51386;53.082;8.816;2023-05-07T07:27:46;13.90;72.30
64888;DHT22;51386;53.082;8.816;2023-05-07T07:30:13;14.00;72.40
64888;DHT22;51386;53.082;8.816;2023-05-07T07:32:40;14.00;72.30
64888;DHT22;51386;53.082;8.816;2023-05-07T07:35:08;14.00;72.10
64888;DHT22;51386;53.082;8.816;2023-05-07T07:37:35;14.00;72.00
64888;DHT22;51386;53.082;8.816;2023-05-07T07:40:04;14.10;72.20
64888;DHT22;51386;53.082;8.816;2023-05-07T07:42:32;14.10;71.70
64888;DHT22;51386;53.082;8.816;2023-05-07T07:44:59;14.20;71.70
64888;DHT22;51386;53.082;8.816;2023-05-07T07:47:26;14.20;71.70
64888;DHT22;51386;53.082;8.816;2023-05-07T07:49:53;14.30;71.30
64888;DHT22;51386;53.082;8.816;2023-05-07T07:52:19;14.30;70.80
64888;DHT22;51386;53.082;8.816;2023-05-07T07:54:46;14.20;70.60
64888;DHT22;51386;53.082;8.816;2023-05-07T07:57:15;14.20;70.70
64888;DHT22;51386;53.082;8.816;2023-05-07T07:59:41;14.20;70.70
64888;DHT22;51386;53.082;8.816;2023-05-07T08:02:09;14.20;70.90
64888;DHT22;51386;53.082;8.816;2023-05-07T08:04:37;14.30;71.10
64888;DHT22;51386;53.082;8.816;2023-05-07T08:07:04;14.40;71.30
64888;DHT22;51386;53.082;8.816;2023-05-07T08:09:32;14.50;70.90
64888;DHT22;51386;53.082;8.816;2023-05-07T08:11:59;14.50;70.40
64888;DHT22;51386;53.082;8.816;2023-05-07T08:14:27;14.70;70.40
64888;DHT22;51386;53.082;8.816;2023-05-07T08:16:55;14.70;69.20
64888;DHT22;51386;53.082;8.816;2023-05-07T08:19:22;14.70;68.90
64888;DHT22;51386;53.082;8.816;2023-05-07T08:21:49;14.80;69.40
64888;DHT22;51386;53.082;8.816;2023-05-07T08:24:16;14.90;69.50
64888;DHT22;51386;53.082;8.816;2023-05-07T08:26:44;14.90;68.90
64888;DHT22;51386;53.082;8.816;2023-05-07T08:29:12;14.90;68.80
64888;DHT22;51386;53.082;8.816;2023-05-07T08:31:41;15.00;68.50
64888;DHT22;51386;53.082;8.816;2023-05-07T08:34:08;15.00;68.20
64888;DHT22;51386;53.082;8.816;2023-05-07T08:36:36;15.00;68.30
64888;DHT22;51386;53.082;8.816;2023-05-07T08:39:02;15.00;68.20
64888;DHT22;51386;53.082;8.816;2023-05-07T08:41:30;15.00;68.50
64888;DHT22;51386;53.082;8.816;2023-05-07T08:43:58;15.00;68.40
64888;DHT22;51386;53.082;8.816;2023-05-07T08:46:31;15.00;68.50
64888;DHT22;51386;53.082;8.816;2023-05-07T08:49:00;15.00;67.80
64888;DHT22;51386;53.082;8.816;2023-05-07T08:51:27;15.00;68.00
64888;DHT22;51386;53.082;8.816;2023-05-07T08:53:54;15.00;67.90
64888;DHT22;51386;53.082;8.816;2023-05-07T08:56:21;15.00;67.90
64888;DHT22;51386;53.082;8.816;2023-05-07T08:58:48;15.00;68.00
64888;DHT22;51386;53.082;8.816;2023-05-07T09:01:16;15.10;68.20
64888;DHT22;51386;53.082;8.816;2023-05-07T09:03:45;15.10;68.40
64888;DHT22;51386;53.082;8.816;2023-05-07T09:06:15;15.10;67.90
64888;DHT22;51386;53.082;8.816;2023-05-07T09:08:49;15.20;67.80
64888;DHT22;51386;53.082;8.816;2023-05-07T09:11:20;15.20;67.80
64888;DHT22;51386;53.082;8.816;2023-05-07T09:13:48;15.20;67.80
64888;DHT22;51386;53.082;8.816;2023-05-07T09:16:16;15.30;68.00
64888;DHT22;51386;53.082;8.816;2023-05-07T09:18:43;15.30;68.30
64888;DHT22;51386;53.082;8.816;2023-05-07T09:21:11;15.50;68.40
64888;DHT22;51386;53.082;8.816;2023-05-07T09:23:43;15.60;68.40
64888;DHT22;51386;53.082;8.816;2023-05-07T09:26:10;15.70;67.70
64888;DHT22;51386;53.082;8.816;2023-05-07T09:28:39;15.90;67.50
64888;DHT22;51386;53.082;8.816;2023-05-07T09:31:07;16.00;66.80
64888;DHT22;51386;53.082;8.816;2023-05-07T09:33:34;16.20;66.50
64888;DHT22;51386;53.082;8.816;2023-05-07T09:36:03;16.30;65.80
64888;DHT22;51386;53.082;8.816;2023-05-07T09:38:31;16.50;66.00
64888;DHT22;51386;53.082;8.816;2023-05-07T09:41:03;16.50;65.00
64888;DHT22;51386;53.082;8.816;2023-05-07T09:43:34;16.70;64.60
64888;DHT22;51386;53.082;8.816;2023-05-07T09:46:04;16.70;64.40
64888;DHT22;51386;53.082;8.816;2023-05-07T09:48:37;16.70;64.20
64888;DHT22;51386;53.082;8.816;2023-05-07T09:51:11;16.80;64.40
64888;DHT22;51386;53.082;8.816;2023-05-07T09:53:46;16.90;64.00
64888;DHT22;51386;53.082;8.816;2023-05-07T09:56:14;17.00;63.90
64888;DHT22;51386;53.082;8.816;2023-05-07T09:58:43;17.10;63.60
64888;DHT22;51386;53.082;8.816;2023-05-07T10:01:12;17.10;63.40
64888;DHT22;51386;53.082;8.816;2023-05-07T10:03:40;17.20;63.20
64888;DHT22;51386;53.082;8.816;2023-05-07T10:06:09;17.40;62.50
64888;DHT22;51386;53.082;8.816;2023-05-07T10:08:37;17.40;61.10
64888;DHT22;51386;53.082;8.816;2023-05-07T10:11:05;17.50;60.50
64888;DHT22;51386;53.082;8.816;2023-05-07T10:13:33;17.60;61.30
64888;DHT22;51386;53.082;8.816;2023-05-07T10:16:04;17.60;61.00
64888;DHT22;51386;53.082;8.816;2023-05-07T10:18:32;17.70;61.10
64888;DHT22;51386;53.082;8.816;2023-05-07T10:21:06;17.70;61.20
64888;DHT22;51386;53.082;8.816;2023-05-07T10:23:35;17.80;61.20
64888;DHT22;51386;53.082;8.816;2023-05-07T10:26:06;17.90;60.60
64888;DHT22;51386;53.082;8.816;2023-05-07T10:28:38;17.90;60.30
64888;DHT22;51386;53.082;8.816;2023-05-07T10:31:23;17.90;59.50
64888;DHT22;51386;53.082;8.816;2023-05-07T10:34:07;17.90;59.80
64888;DHT22;51386;53.082;8.816;2023-05-07T10:36:37;18.00;61.50
64888;DHT22;51386;53.082;8.816;2023-05-07T10:39:05;18.10;60.80
64888;DHT22;51386;53.082;8.816;2023-05-07T10:41:34;18.10;60.70
64888;DHT22;51386;53.082;8.816;2023-05-07T10:44:01;18.20;60.40
64888;DHT22;51386;53.082;8.816;2023-05-07T10:46:28;18.30;60.10
64888;DHT22;51386;53.082;8.816;2023-05-07T10:49:11;18.30;59.90
64888;DHT22;51386;53.082;8.816;2023-05-07T10:51:38;18.30;59.70
64888;DHT22;51386;53.082;8.816;2023-05-07T10:54:22;18.40;59.80
64888;DHT22;51386;53.082;8.816;2023-05-07T10:56:50;18.40;59.20
64888;DHT22;51386;53.082;8.816;2023-05-07T10:59:31;18.50;59.80
64888;DHT22;51386;53.082;8.816;2023-05-07T11:02:07;18.70;59.70
64888;DHT22;51386;53.082;8.816;2023-05-07T11:04:37;18.90;58.50
64888;DHT22;51386;53.082;8.816;2023-05-07T11:10:05;19.60;57.90
64888;DHT22;51386;53.082;8.816;2023-05-07T11:12:52;19.80;56.90
64888;DHT22;51386;53.082;8.816;2023-05-07T11:15:40;20.10;56.10
64888;DHT22;51386;53.082;8.816;2023-05-07T11:18:12;20.20;55.70
64888;DHT22;51386;53.082;8.816;2023-05-07T11:20:51;20.30;53.80
64888;DHT22;51386;53.082;8.816;2023-05-07T11:23:58;20.40;54.60
64888;DHT22;51386;53.082;8.816;2023-05-07T11:26:27;20.50;54.20
64888;DHT22;51386;53.082;8.816;2023-05-07T11:28:57;20.40;53.10
64888;DHT22;51386;53.082;8.816;2023-05-07T11:31:27;20.50;53.50
64888;DHT22;51386;53.082;8.816;2023-05-07T11:33:56;20.40;53.10
64888;DHT22;51386;53.082;8.816;2023-05-07T11:36:23;20.30;53.30
64888;DHT22;51386;53.082;8.816;2023-05-07T11:38:50;20.30;53.70
64888;DHT22;51386;53.082;8.816;2023-05-07T11:41:18;20.30;54.40
64888;DHT22;51386;53.082;8.816;2023-05-07T11:43:58;20.30;53.70
64888;DHT22;51386;53.082;8.816;2023-05-07T11:46:27;20.40;53.60
64888;DHT22;51386;53.082;8.816;2023-05-07T11:48:55;20.40;53.90
64888;DHT22;51386;53.082;8.816;2023-05-07T11:51:24;20.30;53.70
64888;DHT22;51386;53.082;8.816;2023-05-07T11:53:53;20.20;53.70
64888;DHT22;51386;53.082;8.816;2023-05-07T11:56:20;20.10;54.20
64888;DHT22;51386;53.082;8.816;2023-05-07T11:58:48;20.10;54.60
64888;DHT22;51386;53.082;8.816;2023-05-07T12:01:17;20.00;55.10
64888;DHT22;51386;53.082;8.816;2023-05-07T12:03:45;20.00;55.40
64888;DHT22;51386;53.082;8.816;2023-05-07T12:06:15;19.90;55.30
64888;DHT22;51386;53.082;8.816;2023-05-07T12:08:44;19.90;55.20
64888;DHT22;51386;53.082;8.816;2023-05-07T12:11:15;19.90;55.70
64888;DHT22;51386;53.082;8.816;2023-05-07T12:13:48;19.90;55.70
64888;DHT22;51386;53.082;8.816;2023-05-07T12:16:16;19.80;55.70
64888;DHT22;51386;53.082;8.816;2023-05-07T12:18:45;19.90;56.10
64888;DHT22;51386;53.082;8.816;2023-05-07T12:21:13;19.90;55.50
64888;DHT22;51386;53.082;8.816;2023-05-07T12:23:40;19.90;55.90
64888;DHT22;51386;53.082;8.816;2023-05-07T12:26:08;19.90;55.90
64888;DHT22;51386;53.082;8.816;2023-05-07T12:28:38;19.90;55.40
64888;DHT22;51386;53.082;8.816;2023-05-07T12:31:06;19.90;55.60
64888;DHT22;51386;53.082;8.816;2023-05-07T12:33:35;19.90;55.50
64888;DHT22;51386;53.082;8.816;2023-05-07T12:36:05;19.70;55.60
64888;DHT22;51386;53.082;8.816;2023-05-07T12:38:35;19.60;55.80
64888;DHT22;51386;53.082;8.816;2023-05-07T12:41:05;19.60;56.30
64888;DHT22;51386;53.082;8.816;2023-05-07T12:43:34;19.50;56.10
64888;DHT22;51386;53.082;8.816;2023-05-07T12:46:03;19.40;56.10
64888;DHT22;51386;53.082;8.816;2023-05-07T12:48:32;19.40;56.50
64888;DHT22;51386;53.082;8.816;2023-05-07T12:51:01;19.40;57.00
64888;DHT22;51386;53.082;8.816;2023-05-07T12:53:29;19.40;57.00
64888;DHT22;51386;53.082;8.816;2023-05-07T12:55:58;19.40;56.80
64888;DHT22;51386;53.082;8.816;2023-05-07T12:58:28;19.40;56.40
64888;DHT22;51386;53.082;8.816;2023-05-07T13:01:00;19.40;56.50
64888;DHT22;51386;53.082;8.816;2023-05-07T13:03:29;19.30;56.60
64888;DHT22;51386;53.082;8.816;2023-05-07T13:06:00;19.30;56.60
64888;DHT22;51386;53.082;8.816;2023-05-07T13:08:30;19.30;56.70
64888;DHT22;51386;53.082;8.816;2023-05-07T13:10:59;19.30;56.80
64888;DHT22;51386;53.082;8.816;2023-05-07T13:13:30;19.30;56.80
64888;DHT22;51386;53.082;8.816;2023-05-07T13:15:58;19.40;56.90
64888;DHT22;51386;53.082;8.816;2023-05-07T13:18:30;19.50;56.60
64888;DHT22;51386;53.082;8.816;2023-05-07T13:21:00;19.60;56.60
64888;DHT22;51386;53.082;8.816;2023-05-07T13:23:28;19.70;56.10
64888;DHT22;51386;53.082;8.816;2023-05-07T13:25:55;19.90;56.60
64888;DHT22;51386;53.082;8.816;2023-05-07T13:28:23;20.10;55.80
64888;DHT22;51386;53.082;8.816;2023-05-07T13:30:50;20.20;55.00
64888;DHT22;51386;53.082;8.816;2023-05-07T13:33:18;20.50;55.20
64888;DHT22;51386;53.082;8.816;2023-05-07T13:35:45;20.70;54.80
64888;DHT22;51386;53.082;8.816;2023-05-07T13:38:13;21.00;53.90
64888;DHT22;51386;53.082;8.816;2023-05-07T13:40:42;21.20;53.10
64888;DHT22;51386;53.082;8.816;2023-05-07T13:43:09;21.30;52.30
64888;DHT22;51386;53.082;8.816;2023-05-07T13:45:37;21.40;52.10
64888;DHT22;51386;53.082;8.816;2023-05-07T13:48:04;21.60;52.50
64888;DHT22;51386;53.082;8.816;2023-05-07T13:50:31;21.80;52.10
64888;DHT22;51386;53.082;8.816;2023-05-07T13:52:58;22.00;52.10
64888;DHT22;51386;53.082;8.816;2023-05-07T13:55:29;22.40;52.00
64888;DHT22;51386;53.082;8.816;2023-05-07T13:57:56;22.70;50.80
64888;DHT22;51386;53.082;8.816;2023-05-07T14:00:24;22.90;49.40
64888;DHT22;51386;53.082;8.816;2023-05-07T14:02:52;23.20;49.10
64888;DHT22;51386;53.082;8.816;2023-05-07T14:05:20;23.40;49.10
64888;DHT22;51386;53.082;8.816;2023-05-07T14:07:47;23.40;47.70
64888;DHT22;51386;53.082;8.816;2023-05-07T14:10:15;23.40;47.30
64888;DHT22;51386;53.082;8.816;2023-05-07T14:12:44;23.20;46.80
64888;DHT22;51386;53.082;8.816;2023-05-07T14:15:11;23.00;46.90
64888;DHT22;51386;53.082;8.816;2023-05-07T14:17:38;22.90;47.60
64888;DHT22;51386;53.082;8.816;2023-05-07T14:20:06;22.60;47.90
64888;DHT22;51386;53.082;8.816;2023-05-07T14:22:34;22.50;48.30
64888;DHT22;51386;53.082;8.816;2023-05-07T14:25:01;22.30;48.80
64888;DHT22;51386;53.082;8.816;2023-05-07T14:27:30;22.20;49.90
64888;DHT22;51386;53.082;8.816;2023-05-07T14:29:59;22.30;49.80
64888;DHT22;51386;53.082;8.816;2023-05-07T14:32:26;22.40;49.90
64888;DHT22;51386;53.082;8.816;2023-05-07T14:34:53;22.60;50.00
64888;DHT22;51386;53.082;8.816;2023-05-07T14:37:20;22.80;49.70
64888;DHT22;51386;53.082;8.816;2023-05-07T14:39:47;23.10;49.20
64888;DHT22;51386;53.082;8.816;2023-05-07T14:42:16;23.30;47.30
64888;DHT22;51386;53.082;8.816;2023-05-07T14:44:44;23.50;47.40
64888;DHT22;51386;53.082;8.816;2023-05-07T14:47:13;23.60;46.30
64888;DHT22;51386;53.082;8.816;2023-05-07T14:49:42;23.70;46.10
64888;DHT22;51386;53.082;8.816;2023-05-07T14:52:09;23.60;45.60
64888;DHT22;51386;53.082;8.816;2023-05-07T14:54:37;23.60;45.90
64888;DHT22;51386;53.082;8.816;2023-05-07T14:57:06;23.50;45.60
64888;DHT22;51386;53.082;8.816;2023-05-07T14:59:33;23.40;45.70
64888;DHT22;51386;53.082;8.816;2023-05-07T15:02:00;23.40;46.00
64888;DHT22;51386;53.082;8.816;2023-05-07T15:04:34;23.40;46.80
64888;DHT22;51386;53.082;8.816;2023-05-07T15:07:00;23.30;46.10
64888;DHT22;51386;53.082;8.816;2023-05-07T15:09:27;23.20;46.40
64888;DHT22;51386;53.082;8.816;2023-05-07T15:11:55;23.20;46.80
64888;DHT22;51386;53.082;8.816;2023-05-07T15:14:22;23.10;46.30
64888;DHT22;51386;53.082;8.816;2023-05-07T15:16:49;23.00;46.50
64888;DHT22;51386;53.082;8.816;2023-05-07T15:19:16;22.90;46.10
64888;DHT22;51386;53.082;8.816;2023-05-07T15:21:45;22.80;46.20
64888;DHT22;51386;53.082;8.816;2023-05-07T15:24:12;22.70;46.80
64888;DHT22;51386;53.082;8.816;2023-05-07T15:26:38;22.60;47.10
64888;DHT22;51386;53.082;8.816;2023-05-07T15:29:06;22.50;47.40
64888;DHT22;51386;53.082;8.816;2023-05-07T15:31:37;22.30;46.90
64888;DHT22;51386;53.082;8.816;2023-05-07T15:34:05;22.20;47.20
64888;DHT22;51386;53.082;8.816;2023-05-07T15:36:32;22.10;47.50
64888;DHT22;51386;53.082;8.816;2023-05-07T15:39:00;21.90;47.90
64888;DHT22;51386;53.082;8.816;2023-05-07T15:41:29;21.60;48.00